Terminal Aerodrome Forecast
Issued by NWS Portland, OR

Home | Current Version | Previous Version | Text Only | Print | Product List | Glossary On
Versions: 1 2 3 4 5 6 7 8 9 10 11 12 13 14 15 16 17 18 19 20 21 22 23 24 25 26 27 28
000
FTUS46 KPQR 301722
TAFEUG
TAF
KEUG 301722Z 3018/3118 22006KT P6SM BKN015
     FM301900 36007KT P6SM BKN200
     FM310300 31004KT P6SM SCT140 BKN200
     FM310800 21005KT P6SM BKN140=

USA.gov is the U.S. government's official web portal to all federal, state and local government web resources and services.